sensor_id;sensor_type;location;lat;lon;timestamp;P1;durP1;ratioP1;P2;durP2;ratioP2
43509;SDS011;29105;57.764;40.952;2022-08-21T00:01:47;70.10;;;42.78;;
43509;SDS011;29105;57.764;40.952;2022-08-21T00:04:12;71.82;;;42.15;;
43509;SDS011;29105;57.764;40.952;2022-08-21T00:06:39;66.55;;;39.85;;
43509;SDS011;29105;57.764;40.952;2022-08-21T00:09:05;71.22;;;40.35;;
43509;SDS011;29105;57.764;40.952;2022-08-21T00:11:33;64.85;;;39.28;;
43509;SDS011;29105;57.764;40.952;2022-08-21T00:14:00;73.30;;;39.92;;
43509;SDS011;29105;57.764;40.952;2022-08-21T00:16:26;61.78;;;39.20;;
43509;SDS011;29105;57.764;40.952;2022-08-21T00:18:52;63.47;;;37.75;;
43509;SDS011;29105;57.764;40.952;2022-08-21T00:21:18;67.43;;;37.75;;
43509;SDS011;29105;57.764;40.952;2022-08-21T00:23:44;64.18;;;36.20;;
43509;SDS011;29105;57.764;40.952;2022-08-21T00:26:09;61.35;;;34.40;;
43509;SDS011;29105;57.764;40.952;2022-08-21T00:28:35;61.53;;;36.60;;
43509;SDS011;29105;57.764;40.952;2022-08-21T00:31:01;66.53;;;39.83;;
43509;SDS011;29105;57.764;40.952;2022-08-21T00:33:29;64.78;;;37.97;;
43509;SDS011;29105;57.764;40.952;2022-08-21T00:35:55;62.08;;;36.78;;
43509;SDS011;29105;57.764;40.952;2022-08-21T00:38:21;59.97;;;36.67;;
43509;SDS011;29105;57.764;40.952;2022-08-21T00:40:50;62.58;;;37.25;;
43509;SDS011;29105;57.764;40.952;2022-08-21T00:43:19;57.80;;;34.45;;
43509;SDS011;29105;57.764;40.952;2022-08-21T00:45:47;58.92;;;35.83;;
43509;SDS011;29105;57.764;40.952;2022-08-21T00:48:15;59.47;;;31.83;;
43509;SDS011;29105;57.764;40.952;2022-08-21T00:50:43;60.83;;;35.90;;
43509;SDS011;29105;57.764;40.952;2022-08-21T00:53:11;57.33;;;37.15;;
43509;SDS011;29105;57.764;40.952;2022-08-21T00:55:38;64.28;;;38.17;;
43509;SDS011;29105;57.764;40.952;2022-08-21T00:58:04;56.45;;;33.30;;
43509;SDS011;29105;57.764;40.952;2022-08-21T01:00:36;65.75;;;35.72;;
43509;SDS011;29105;57.764;40.952;2022-08-21T01:03:05;72.32;;;37.38;;
43509;SDS011;29105;57.764;40.952;2022-08-21T01:05:34;63.17;;;36.83;;
43509;SDS011;29105;57.764;40.952;2022-08-21T01:08:00;60.13;;;34.40;;
43509;SDS011;29105;57.764;40.952;2022-08-21T01:10:26;63.83;;;36.00;;
43509;SDS011;29105;57.764;40.952;2022-08-21T01:12:52;56.85;;;36.22;;
43509;SDS011;29105;57.764;40.952;2022-08-21T01:15:21;59.40;;;35.53;;
43509;SDS011;29105;57.764;40.952;2022-08-21T01:17:49;60.67;;;37.35;;
43509;SDS011;29105;57.764;40.952;2022-08-21T01:20:25;63.30;;;36.63;;
43509;SDS011;29105;57.764;40.952;2022-08-21T01:22:51;58.58;;;37.10;;
43509;SDS011;29105;57.764;40.952;2022-08-21T01:25:17;65.85;;;38.05;;
43509;SDS011;29105;57.764;40.952;2022-08-21T01:27:44;62.95;;;37.45;;
43509;SDS011;29105;57.764;40.952;2022-08-21T01:32:47;59.30;;;35.38;;
43509;SDS011;29105;57.764;40.952;2022-08-21T01:35:13;63.70;;;37.08;;
43509;SDS011;29105;57.764;40.952;2022-08-21T01:37:41;60.28;;;37.85;;
43509;SDS011;29105;57.764;40.952;2022-08-21T01:40:07;59.33;;;36.17;;
43509;SDS011;29105;57.764;40.952;2022-08-21T01:42:34;55.60;;;35.38;;
43509;SDS011;29105;57.764;40.952;2022-08-21T01:45:05;59.20;;;33.80;;
43509;SDS011;29105;57.764;40.952;2022-08-21T01:47:32;57.47;;;35.85;;
43509;SDS011;29105;57.764;40.952;2022-08-21T01:49:58;64.10;;;36.05;;
43509;SDS011;29105;57.764;40.952;2022-08-21T01:52:24;57.20;;;33.83;;
43509;SDS011;29105;57.764;40.952;2022-08-21T01:54:50;58.13;;;36.45;;
43509;SDS011;29105;57.764;40.952;2022-08-21T01:57:16;59.15;;;36.97;;
43509;SDS011;29105;57.764;40.952;2022-08-21T01:59:42;52.60;;;34.83;;
43509;SDS011;29105;57.764;40.952;2022-08-21T02:02:07;60.83;;;35.67;;
43509;SDS011;29105;57.764;40.952;2022-08-21T02:04:33;65.43;;;36.22;;
43509;SDS011;29105;57.764;40.952;2022-08-21T02:06:59;61.03;;;36.78;;
43509;SDS011;29105;57.764;40.952;2022-08-21T02:09:26;63.38;;;35.00;;
43509;SDS011;29105;57.764;40.952;2022-08-21T02:11:54;63.03;;;36.28;;
43509;SDS011;29105;57.764;40.952;2022-08-21T02:14:19;62.58;;;33.60;;
43509;SDS011;29105;57.764;40.952;2022-08-21T02:16:47;62.60;;;35.67;;
43509;SDS011;29105;57.764;40.952;2022-08-21T02:19:14;55.03;;;33.63;;
43509;SDS011;29105;57.764;40.952;2022-08-21T02:21:40;56.38;;;34.08;;
43509;SDS011;29105;57.764;40.952;2022-08-21T02:24:07;57.38;;;35.75;;
43509;SDS011;29105;57.764;40.952;2022-08-21T02:26:35;55.42;;;33.55;;
43509;SDS011;29105;57.764;40.952;2022-08-21T02:29:01;56.70;;;34.38;;
43509;SDS011;29105;57.764;40.952;2022-08-21T02:31:28;60.80;;;35.60;;
43509;SDS011;29105;57.764;40.952;2022-08-21T02:33:54;58.90;;;35.10;;
43509;SDS011;29105;57.764;40.952;2022-08-21T02:36:20;63.20;;;34.67;;
43509;SDS011;29105;57.764;40.952;2022-08-21T02:38:45;58.75;;;33.35;;
43509;SDS011;29105;57.764;40.952;2022-08-21T02:41:15;60.72;;;33.40;;
43509;SDS011;29105;57.764;40.952;2022-08-21T02:43:43;61.10;;;33.05;;
43509;SDS011;29105;57.764;40.952;2022-08-21T02:46:10;55.42;;;32.08;;
43509;SDS011;29105;57.764;40.952;2022-08-21T02:48:37;56.08;;;32.83;;
43509;SDS011;29105;57.764;40.952;2022-08-21T02:51:04;58.67;;;32.88;;
43509;SDS011;29105;57.764;40.952;2022-08-21T02:56:02;60.47;;;33.80;;
43509;SDS011;29105;57.764;40.952;2022-08-21T02:58:33;53.70;;;32.40;;
43509;SDS011;29105;57.764;40.952;2022-08-21T03:01:00;54.63;;;31.73;;
43509;SDS011;29105;57.764;40.952;2022-08-21T03:03:27;58.20;;;33.30;;
43509;SDS011;29105;57.764;40.952;2022-08-21T03:05:53;53.67;;;32.47;;
43509;SDS011;29105;57.764;40.952;2022-08-21T03:08:20;47.22;;;30.60;;
43509;SDS011;29105;57.764;40.952;2022-08-21T03:10:49;46.30;;;28.88;;
43509;SDS011;29105;57.764;40.952;2022-08-21T03:13:16;54.08;;;30.42;;
43509;SDS011;29105;57.764;40.952;2022-08-21T03:15:42;53.97;;;30.58;;
43509;SDS011;29105;57.764;40.952;2022-08-21T03:18:09;56.65;;;31.83;;
43509;SDS011;29105;57.764;40.952;2022-08-21T03:20:35;57.53;;;30.60;;
43509;SDS011;29105;57.764;40.952;2022-08-21T03:23:02;57.00;;;30.58;;
43509;SDS011;29105;57.764;40.952;2022-08-21T03:25:29;50.13;;;27.98;;
43509;SDS011;29105;57.764;40.952;2022-08-21T03:28:02;54.30;;;30.05;;
43509;SDS011;29105;57.764;40.952;2022-08-21T03:30:30;46.67;;;27.67;;
43509;SDS011;29105;57.764;40.952;2022-08-21T03:32:57;44.80;;;28.30;;
43509;SDS011;29105;57.764;40.952;2022-08-21T03:35:24;46.38;;;28.65;;
43509;SDS011;29105;57.764;40.952;2022-08-21T03:37:50;47.00;;;28.63;;
43509;SDS011;29105;57.764;40.952;2022-08-21T03:40:17;44.38;;;26.58;;
43509;SDS011;29105;57.764;40.952;2022-08-21T03:42:43;44.17;;;26.42;;
43509;SDS011;29105;57.764;40.952;2022-08-21T03:45:14;41.33;;;26.00;;
43509;SDS011;29105;57.764;40.952;2022-08-21T03:50:38;43.97;;;25.90;;
43509;SDS011;29105;57.764;40.952;2022-08-21T03:53:05;44.42;;;25.77;;
43509;SDS011;29105;57.764;40.952;2022-08-21T03:55:31;38.10;;;23.13;;
43509;SDS011;29105;57.764;40.952;2022-08-21T03:57:57;39.47;;;25.13;;
43509;SDS011;29105;57.764;40.952;2022-08-21T04:00:23;37.53;;;24.88;;
43509;SDS011;29105;57.764;40.952;2022-08-21T04:02:48;37.10;;;24.52;;
43509;SDS011;29105;57.764;40.952;2022-08-21T04:05:15;38.25;;;24.27;;
43509;SDS011;29105;57.764;40.952;2022-08-21T04:07:56;41.65;;;23.70;;
43509;SDS011;29105;57.764;40.952;2022-08-21T04:10:23;37.08;;;24.65;;
43509;SDS011;29105;57.764;40.952;2022-08-21T04:12:51;39.47;;;24.77;;
43509;SDS011;29105;57.764;40.952;2022-08-21T04:15:17;36.83;;;23.40;;
43509;SDS011;29105;57.764;40.952;2022-08-21T04:17:43;34.58;;;23.92;;
43509;SDS011;29105;57.764;40.952;2022-08-21T04:20:10;34.20;;;22.02;;
43509;SDS011;29105;57.764;40.952;2022-08-21T04:22:38;33.33;;;21.60;;
43509;SDS011;29105;57.764;40.952;2022-08-21T04:25:08;35.92;;;20.45;;
43509;SDS011;29105;57.764;40.952;2022-08-21T04:27:34;32.85;;;21.88;;
43509;SDS011;29105;57.764;40.952;2022-08-21T04:29:59;29.27;;;19.25;;
43509;SDS011;29105;57.764;40.952;2022-08-21T04:32:28;33.55;;;19.70;;
43509;SDS011;29105;57.764;40.952;2022-08-21T04:35:00;32.08;;;20.10;;
43509;SDS011;29105;57.764;40.952;2022-08-21T04:37:29;36.42;;;22.67;;
43509;SDS011;29105;57.764;40.952;2022-08-21T04:39:55;32.60;;;21.63;;
43509;SDS011;29105;57.764;40.952;2022-08-21T04:44:53;37.80;;;22.27;;
43509;SDS011;29105;57.764;40.952;2022-08-21T04:47:20;30.70;;;20.85;;
43509;SDS011;29105;57.764;40.952;2022-08-21T04:49:46;32.05;;;20.83;;
43509;SDS011;29105;57.764;40.952;2022-08-21T04:52:13;38.50;;;22.90;;
43509;SDS011;29105;57.764;40.952;2022-08-21T04:54:41;31.65;;;19.92;;
43509;SDS011;29105;57.764;40.952;2022-08-21T04:57:08;31.88;;;19.67;;
43509;SDS011;29105;57.764;40.952;2022-08-21T04:59:35;30.08;;;20.45;;
43509;SDS011;29105;57.764;40.952;2022-08-21T05:02:05;36.58;;;20.60;;
43509;SDS011;29105;57.764;40.952;2022-08-21T05:04:32;33.97;;;20.42;;
43509;SDS011;29105;57.764;40.952;2022-08-21T05:07:00;28.80;;;19.27;;
43509;SDS011;29105;57.764;40.952;2022-08-21T05:09:28;30.65;;;19.42;;
43509;SDS011;29105;57.764;40.952;2022-08-21T05:11:54;34.15;;;20.13;;
43509;SDS011;29105;57.764;40.952;2022-08-21T05:14:20;29.52;;;19.30;;
43509;SDS011;29105;57.764;40.952;2022-08-21T05:16:46;31.70;;;18.15;;
43509;SDS011;29105;57.764;40.952;2022-08-21T05:19:12;30.85;;;20.17;;
43509;SDS011;29105;57.764;40.952;2022-08-21T05:21:39;30.98;;;17.73;;
43509;SDS011;29105;57.764;40.952;2022-08-21T05:24:07;25.65;;;17.13;;
43509;SDS011;29105;57.764;40.952;2022-08-21T05:26:33;22.92;;;16.23;;
43509;SDS011;29105;57.764;40.952;2022-08-21T05:28:59;25.27;;;15.95;;
43509;SDS011;29105;57.764;40.952;2022-08-21T05:31:25;24.00;;;15.85;;
43509;SDS011;29105;57.764;40.952;2022-08-21T05:33:50;21.48;;;15.60;;
43509;SDS011;29105;57.764;40.952;2022-08-21T05:36:17;24.63;;;16.85;;
43509;SDS011;29105;57.764;40.952;2022-08-21T05:38:43;23.33;;;15.43;;
43509;SDS011;29105;57.764;40.952;2022-08-21T05:41:09;24.77;;;15.02;;
43509;SDS011;29105;57.764;40.952;2022-08-21T05:43:34;25.13;;;15.30;;
43509;SDS011;29105;57.764;40.952;2022-08-21T05:46:05;22.67;;;15.15;;
43509;SDS011;29105;57.764;40.952;2022-08-21T05:48:35;22.63;;;15.48;;
43509;SDS011;29105;57.764;40.952;2022-08-21T05:51:12;20.73;;;13.90;;
43509;SDS011;29105;57.764;40.952;2022-08-21T05:53:40;21.42;;;14.15;;
43509;SDS011;29105;57.764;40.952;2022-08-21T05:56:10;18.92;;;14.63;;
43509;SDS011;29105;57.764;40.952;2022-08-21T05:58:37;27.55;;;15.93;;
43509;SDS011;29105;57.764;40.952;2022-08-21T06:01:03;22.90;;;15.25;;
43509;SDS011;29105;57.764;40.952;2022-08-21T06:03:30;19.15;;;13.23;;
43509;SDS011;29105;57.764;40.952;2022-08-21T06:06:04;22.67;;;13.05;;
43509;SDS011;29105;57.764;40.952;2022-08-21T06:08:30;22.27;;;14.75;;
43509;SDS011;29105;57.764;40.952;2022-08-21T06:10:57;20.88;;;14.10;;
43509;SDS011;29105;57.764;40.952;2022-08-21T06:13:24;27.67;;;14.93;;
43509;SDS011;29105;57.764;40.952;2022-08-21T06:16:00;23.05;;;14.18;;
43509;SDS011;29105;57.764;40.952;2022-08-21T06:18:34;27.85;;;15.63;;
43509;SDS011;29105;57.764;40.952;2022-08-21T06:21:01;24.63;;;14.27;;
43509;SDS011;29105;57.764;40.952;2022-08-21T06:23:27;20.50;;;13.60;;
43509;SDS011;29105;57.764;40.952;2022-08-21T06:25:52;20.83;;;14.50;;
43509;SDS011;29105;57.764;40.952;2022-08-21T06:28:18;17.67;;;13.95;;
43509;SDS011;29105;57.764;40.952;2022-08-21T06:30:44;19.33;;;13.95;;
43509;SDS011;29105;57.764;40.952;2022-08-21T06:33:11;22.98;;;14.32;;
43509;SDS011;29105;57.764;40.952;2022-08-21T06:35:37;17.08;;;12.95;;
43509;SDS011;29105;57.764;40.952;2022-08-21T06:38:03;22.35;;;14.38;;
43509;SDS011;29105;57.764;40.952;2022-08-21T06:40:29;15.02;;;11.70;;
43509;SDS011;29105;57.764;40.952;2022-08-21T06:42:57;19.10;;;12.60;;
43509;SDS011;29105;57.764;40.952;2022-08-21T06:45:23;16.50;;;11.85;;
43509;SDS011;29105;57.764;40.952;2022-08-21T06:47:49;17.10;;;13.25;;
43509;SDS011;29105;57.764;40.952;2022-08-21T06:50:15;18.92;;;13.10;;
43509;SDS011;29105;57.764;40.952;2022-08-21T06:52:41;19.88;;;13.40;;
43509;SDS011;29105;57.764;40.952;2022-08-21T06:55:09;15.40;;;11.00;;
43509;SDS011;29105;57.764;40.952;2022-08-21T06:57:35;13.93;;;9.90;;
43509;SDS011;29105;57.764;40.952;2022-08-21T07:00:04;16.60;;;10.65;;
43509;SDS011;29105;57.764;40.952;2022-08-21T07:02:30;14.40;;;10.13;;
43509;SDS011;29105;57.764;40.952;2022-08-21T07:04:56;17.52;;;10.95;;
43509;SDS011;29105;57.764;40.952;2022-08-21T07:07:24;17.30;;;9.05;;
43509;SDS011;29105;57.764;40.952;2022-08-21T07:09:50;12.27;;;8.85;;
43509;SDS011;29105;57.764;40.952;2022-08-21T07:12:16;13.50;;;8.30;;
43509;SDS011;29105;57.764;40.952;2022-08-21T07:14:46;13.07;;;7.90;;
43509;SDS011;29105;57.764;40.952;2022-08-21T07:17:14;10.25;;;7.00;;
43509;SDS011;29105;57.764;40.952;2022-08-21T07:19:43;14.68;;;7.25;;
43509;SDS011;29105;57.764;40.952;2022-08-21T07:22:08;13.82;;;8.10;;
43509;SDS011;29105;57.764;40.952;2022-08-21T07:24:34;14.82;;;7.03;;
43509;SDS011;29105;57.764;40.952;2022-08-21T07:27:00;9.60;;;6.88;;
43509;SDS011;29105;57.764;40.952;2022-08-21T07:29:25;11.40;;;6.95;;
43509;SDS011;29105;57.764;40.952;2022-08-21T07:31:51;12.88;;;6.40;;
43509;SDS011;29105;57.764;40.952;2022-08-21T07:34:17;13.32;;;7.00;;
43509;SDS011;29105;57.764;40.952;2022-08-21T07:36:42;11.10;;;6.38;;
43509;SDS011;29105;57.764;40.952;2022-08-21T07:39:08;9.43;;;6.25;;
43509;SDS011;29105;57.764;40.952;2022-08-21T07:41:34;12.40;;;6.63;;
43509;SDS011;29105;57.764;40.952;2022-08-21T07:44:00;9.73;;;6.60;;
43509;SDS011;29105;57.764;40.952;2022-08-21T07:46:26;8.65;;;5.57;;
43509;SDS011;29105;57.764;40.952;2022-08-21T07:48:52;7.90;;;5.63;;
43509;SDS011;29105;57.764;40.952;2022-08-21T07:51:21;7.72;;;4.95;;
43509;SDS011;29105;57.764;40.952;2022-08-21T07:53:50;10.90;;;4.70;;
43509;SDS011;29105;57.764;40.952;2022-08-21T07:56:17;12.73;;;5.47;;
43509;SDS011;29105;57.764;40.952;2022-08-21T07:58:43;8.50;;;3.72;;
43509;SDS011;29105;57.764;40.952;2022-08-21T08:01:08;6.47;;;4.03;;
43509;SDS011;29105;57.764;40.952;2022-08-21T08:03:34;8.65;;;5.45;;
43509;SDS011;29105;57.764;40.952;2022-08-21T08:06:00;6.60;;;4.47;;
43509;SDS011;29105;57.764;40.952;2022-08-21T08:08:36;6.30;;;2.63;;
43509;SDS011;29105;57.764;40.952;2022-08-21T08:11:02;9.73;;;3.83;;
43509;SDS011;29105;57.764;40.952;2022-08-21T08:13:27;5.15;;;3.08;;
43509;SDS011;29105;57.764;40.952;2022-08-21T08:15:53;9.15;;;4.38;;
43509;SDS011;29105;57.764;40.952;2022-08-21T08:18:19;9.65;;;4.07;;
43509;SDS011;29105;57.764;40.952;2022-08-21T08:20:47;8.60;;;3.65;;
43509;SDS011;29105;57.764;40.952;2022-08-21T08:23:13;10.15;;;4.82;;
43509;SDS011;29105;57.764;40.952;2022-08-21T08:25:40;8.18;;;4.95;;
43509;SDS011;29105;57.764;40.952;2022-08-21T08:28:06;10.63;;;4.30;;
43509;SDS011;29105;57.764;40.952;2022-08-21T08:30:32;8.95;;;4.18;;
43509;SDS011;29105;57.764;40.952;2022-08-21T08:32:58;6.55;;;3.92;;
43509;SDS011;29105;57.764;40.952;2022-08-21T08:35:25;7.22;;;3.35;;
43509;SDS011;29105;57.764;40.952;2022-08-21T08:37:53;9.48;;;4.68;;
43509;SDS011;29105;57.764;40.952;2022-08-21T08:43:05;6.75;;;3.72;;
43509;SDS011;29105;57.764;40.952;2022-08-21T08:45:32;5.90;;;3.50;;
43509;SDS011;29105;57.764;40.952;2022-08-21T08:48:03;5.65;;;2.65;;
43509;SDS011;29105;57.764;40.952;2022-08-21T08:53:22;9.45;;;4.43;;
43509;SDS011;29105;57.764;40.952;2022-08-21T08:55:51;5.30;;;3.58;;
43509;SDS011;29105;57.764;40.952;2022-08-21T08:58:29;11.52;;;4.00;;
43509;SDS011;29105;57.764;40.952;2022-08-21T09:00:56;8.95;;;4.20;;
43509;SDS011;29105;57.764;40.952;2022-08-21T09:03:23;8.73;;;3.03;;
43509;SDS011;29105;57.764;40.952;2022-08-21T09:06:33;7.22;;;4.03;;
43509;SDS011;29105;57.764;40.952;2022-08-21T09:08:56;5.13;;;3.03;;
43509;SDS011;29105;57.764;40.952;2022-08-21T09:11:56;8.98;;;3.65;;
43509;SDS011;29105;57.764;40.952;2022-08-21T09:22:46;7.40;;;3.25;;
43509;SDS011;29105;57.764;40.952;2022-08-21T09:25:49;7.63;;;3.65;;
43509;SDS011;29105;57.764;40.952;2022-08-21T09:28:18;7.35;;;2.95;;
43509;SDS011;29105;57.764;40.952;2022-08-21T09:30:44;6.38;;;3.40;;
43509;SDS011;29105;57.764;40.952;2022-08-21T09:33:11;7.70;;;2.38;;
43509;SDS011;29105;57.764;40.952;2022-08-21T09:35:47;3.72;;;2.70;;
43509;SDS011;29105;57.764;40.952;2022-08-21T09:38:22;5.85;;;2.75;;
43509;SDS011;29105;57.764;40.952;2022-08-21T09:40:58;8.63;;;3.13;;
43509;SDS011;29105;57.764;40.952;2022-08-21T09:43:52;5.93;;;2.20;;
43509;SDS011;29105;57.764;40.952;2022-08-21T09:46:22;7.77;;;2.70;;
43509;SDS011;29105;57.764;40.952;2022-08-21T09:48:51;7.07;;;2.53;;
43509;SDS011;29105;57.764;40.952;2022-08-21T09:53:56;2.50;;;2.00;;
43509;SDS011;29105;57.764;40.952;2022-08-21T09:56:36;7.55;;;2.22;;
43509;SDS011;29105;57.764;40.952;2022-08-21T09:59:26;5.18;;;1.92;;
43509;SDS011;29105;57.764;40.952;2022-08-21T10:01:54;6.03;;;2.85;;
43509;SDS011;29105;57.764;40.952;2022-08-21T10:04:21;11.38;;;2.92;;
43509;SDS011;29105;57.764;40.952;2022-08-21T10:06:49;11.23;;;2.67;;
43509;SDS011;29105;57.764;40.952;2022-08-21T10:09:17;4.25;;;2.35;;
43509;SDS011;29105;57.764;40.952;2022-08-21T10:11:47;3.67;;;2.38;;
43509;SDS011;29105;57.764;40.952;2022-08-21T10:16:47;7.35;;;2.17;;
43509;SDS011;29105;57.764;40.952;2022-08-21T10:22:10;6.47;;;1.85;;
43509;SDS011;29105;57.764;40.952;2022-08-21T10:28:02;4.70;;;2.33;;
43509;SDS011;29105;57.764;40.952;2022-08-21T10:30:41;4.07;;;2.00;;
43509;SDS011;29105;57.764;40.952;2022-08-21T10:41:38;4.28;;;1.85;;
43509;SDS011;29105;57.764;40.952;2022-08-21T10:47:05;6.25;;;2.78;;
43509;SDS011;29105;57.764;40.952;2022-08-21T10:55:22;4.47;;;2.30;;
43509;SDS011;29105;57.764;40.952;2022-08-21T10:58:03;3.63;;;1.77;;
43509;SDS011;29105;57.764;40.952;2022-08-21T11:00:36;5.95;;;2.15;;
43509;SDS011;29105;57.764;40.952;2022-08-21T11:03:13;6.88;;;2.25;;
43509;SDS011;29105;57.764;40.952;2022-08-21T11:05:44;6.88;;;2.65;;
43509;SDS011;29105;57.764;40.952;2022-08-21T11:08:17;3.45;;;2.20;;
43509;SDS011;29105;57.764;40.952;2022-08-21T11:11:24;3.63;;;2.20;;
43509;SDS011;29105;57.764;40.952;2022-08-21T11:14:01;7.75;;;2.65;;
43509;SDS011;29105;57.764;40.952;2022-08-21T11:16:35;6.45;;;2.60;;
43509;SDS011;29105;57.764;40.952;2022-08-21T11:22:06;6.25;;;3.03;;
43509;SDS011;29105;57.764;40.952;2022-08-21T11:24:50;9.73;;;3.78;;
43509;SDS011;29105;57.764;40.952;2022-08-21T11:27:24;7.35;;;3.35;;
43509;SDS011;29105;57.764;40.952;2022-08-21T11:30:10;5.82;;;3.28;;
43509;SDS011;29105;57.764;40.952;2022-08-21T11:32:48;5.70;;;3.15;;
43509;SDS011;29105;57.764;40.952;2022-08-21T11:35:21;7.80;;;3.67;;
43509;SDS011;29105;57.764;40.952;2022-08-21T11:52:10;9.02;;;3.55;;
43509;SDS011;29105;57.764;40.952;2022-08-21T11:56:59;5.72;;;3.45;;
43509;SDS011;29105;57.764;40.952;2022-08-21T12:02:10;5.70;;;2.85;;
43509;SDS011;29105;57.764;40.952;2022-08-21T12:04:46;9.18;;;3.88;;
43509;SDS011;29105;57.764;40.952;2022-08-21T12:09:58;7.45;;;3.63;;
43509;SDS011;29105;57.764;40.952;2022-08-21T12:12:29;6.03;;;3.50;;
43509;SDS011;29105;57.764;40.952;2022-08-21T12:17:39;5.93;;;3.03;;
43509;SDS011;29105;57.764;40.952;2022-08-21T12:20:23;10.95;;;3.58;;
43509;SDS011;29105;57.764;40.952;2022-08-21T12:23:05;8.40;;;3.33;;
43509;SDS011;29105;57.764;40.952;2022-08-21T12:28:29;6.65;;;3.15;;
43509;SDS011;29105;57.764;40.952;2022-08-21T12:30:56;8.63;;;3.28;;
43509;SDS011;29105;57.764;40.952;2022-08-21T12:33:32;7.97;;;3.35;;
43509;SDS011;29105;57.764;40.952;2022-08-21T12:36:02;9.52;;;3.35;;
43509;SDS011;29105;57.764;40.952;2022-08-21T12:38:39;6.77;;;3.23;;
43509;SDS011;29105;57.764;40.952;2022-08-21T12:41:16;13.15;;;4.30;;
43509;SDS011;29105;57.764;40.952;2022-08-21T12:43:50;12.80;;;3.53;;
43509;SDS011;29105;57.764;40.952;2022-08-21T12:46:42;12.15;;;4.03;;
43509;SDS011;29105;57.764;40.952;2022-08-21T12:49:26;8.23;;;3.85;;
43509;SDS011;29105;57.764;40.952;2022-08-21T12:52:05;7.68;;;3.67;;
43509;SDS011;29105;57.764;40.952;2022-08-21T12:54:39;7.88;;;3.70;;
43509;SDS011;29105;57.764;40.952;2022-08-21T12:57:08;13.00;;;3.63;;
43509;SDS011;29105;57.764;40.952;2022-08-21T12:59:38;7.38;;;3.60;;
43509;SDS011;29105;57.764;40.952;2022-08-21T13:02:10;10.40;;;3.55;;
43509;SDS011;29105;57.764;40.952;2022-08-21T13:04:43;10.45;;;3.97;;
43509;SDS011;29105;57.764;40.952;2022-08-21T13:07:10;6.97;;;3.65;;
43509;SDS011;29105;57.764;40.952;2022-08-21T13:09:41;10.60;;;4.35;;
43509;SDS011;29105;57.764;40.952;2022-08-21T13:14:56;8.15;;;4.43;;
43509;SDS011;29105;57.764;40.952;2022-08-21T13:17:25;7.25;;;4.50;;
43509;SDS011;29105;57.764;40.952;2022-08-21T13:20:02;7.85;;;4.13;;
43509;SDS011;29105;57.764;40.952;2022-08-21T13:22:39;7.95;;;3.72;;
43509;SDS011;29105;57.764;40.952;2022-08-21T13:25:12;7.30;;;3.75;;
43509;SDS011;29105;57.764;40.952;2022-08-21T13:27:41;7.10;;;4.25;;
43509;SDS011;29105;57.764;40.952;2022-08-21T13:30:12;7.70;;;3.60;;
43509;SDS011;29105;57.764;40.952;2022-08-21T13:32:47;10.10;;;3.53;;
43509;SDS011;29105;57.764;40.952;2022-08-21T13:35:20;11.95;;;4.70;;
43509;SDS011;29105;57.764;40.952;2022-08-21T13:37:48;8.98;;;3.90;;
43509;SDS011;29105;57.764;40.952;2022-08-21T13:40:28;8.38;;;4.25;;
43509;SDS011;29105;57.764;40.952;2022-08-21T13:42:58;7.60;;;4.22;;
43509;SDS011;29105;57.764;40.952;2022-08-21T13:45:30;10.18;;;3.60;;
43509;SDS011;29105;57.764;40.952;2022-08-21T13:47:57;9.23;;;3.88;;
43509;SDS011;29105;57.764;40.952;2022-08-21T13:50:24;9.32;;;3.78;;
43509;SDS011;29105;57.764;40.952;2022-08-21T13:52:55;8.15;;;3.38;;
43509;SDS011;29105;57.764;40.952;2022-08-21T13:55:25;9.15;;;3.95;;
43509;SDS011;29105;57.764;40.952;2022-08-21T13:58:03;7.00;;;3.35;;
43509;SDS011;29105;57.764;40.952;2022-08-21T14:00:30;7.80;;;4.07;;
43509;SDS011;29105;57.764;40.952;2022-08-21T14:03:07;7.05;;;3.70;;
43509;SDS011;29105;57.764;40.952;2022-08-21T14:05:36;9.27;;;4.35;;
43509;SDS011;29105;57.764;40.952;2022-08-21T14:08:08;8.30;;;4.05;;
43509;SDS011;29105;57.764;40.952;2022-08-21T14:10:41;9.57;;;4.38;;
43509;SDS011;29105;57.764;40.952;2022-08-21T14:15:59;9.07;;;4.78;;
43509;SDS011;29105;57.764;40.952;2022-08-21T14:18:53;9.65;;;4.30;;
43509;SDS011;29105;57.764;40.952;2022-08-21T14:21:33;8.75;;;4.82;;
43509;SDS011;29105;57.764;40.952;2022-08-21T14:24:06;11.85;;;5.45;;
43509;SDS011;29105;57.764;40.952;2022-08-21T14:26:36;10.05;;;5.30;;
43509;SDS011;29105;57.764;40.952;2022-08-21T14:29:09;11.35;;;5.35;;
43509;SDS011;29105;57.764;40.952;2022-08-21T14:31:40;11.30;;;5.10;;
43509;SDS011;29105;57.764;40.952;2022-08-21T14:34:05;7.07;;;4.25;;
43509;SDS011;29105;57.764;40.952;2022-08-21T14:36:31;12.77;;;5.97;;
43509;SDS011;29105;57.764;40.952;2022-08-21T14:38:56;13.80;;;6.13;;
43509;SDS011;29105;57.764;40.952;2022-08-21T14:41:24;9.85;;;6.15;;
43509;SDS011;29105;57.764;40.952;2022-08-21T14:43:52;10.48;;;5.88;;
43509;SDS011;29105;57.764;40.952;2022-08-21T14:46:25;13.40;;;5.68;;
43509;SDS011;29105;57.764;40.952;2022-08-21T14:48:55;12.05;;;6.05;;
43509;SDS011;29105;57.764;40.952;2022-08-21T14:51:20;11.55;;;7.00;;
43509;SDS011;29105;57.764;40.952;2022-08-21T14:53:46;10.68;;;6.65;;
43509;SDS011;29105;57.764;40.952;2022-08-21T14:56:13;12.93;;;6.88;;
43509;SDS011;29105;57.764;40.952;2022-08-21T14:58:44;16.20;;;7.72;;
43509;SDS011;29105;57.764;40.952;2022-08-21T15:01:13;19.65;;;7.80;;
43509;SDS011;29105;57.764;40.952;2022-08-21T15:03:40;16.02;;;6.60;;
43509;SDS011;29105;57.764;40.952;2022-08-21T15:06:07;11.95;;;7.40;;
43509;SDS011;29105;57.764;40.952;2022-08-21T15:08:33;14.55;;;8.20;;
43509;SDS011;29105;57.764;40.952;2022-08-21T15:11:00;16.60;;;8.23;;
43509;SDS011;29105;57.764;40.952;2022-08-21T15:13:26;16.58;;;8.60;;
43509;SDS011;29105;57.764;40.952;2022-08-21T15:15:52;10.32;;;7.30;;
43509;SDS011;29105;57.764;40.952;2022-08-21T15:18:20;24.23;;;7.65;;
43509;SDS011;29105;57.764;40.952;2022-08-21T15:20:46;19.52;;;8.10;;
43509;SDS011;29105;57.764;40.952;2022-08-21T15:23:12;13.20;;;7.13;;
43509;SDS011;29105;57.764;40.952;2022-08-21T15:25:40;14.93;;;8.30;;
43509;SDS011;29105;57.764;40.952;2022-08-21T15:28:06;16.45;;;8.32;;
43509;SDS011;29105;57.764;40.952;2022-08-21T15:30:35;15.98;;;8.38;;
43509;SDS011;29105;57.764;40.952;2022-08-21T15:33:02;15.95;;;8.55;;
43509;SDS011;29105;57.764;40.952;2022-08-21T15:35:28;19.42;;;8.90;;
43509;SDS011;29105;57.764;40.952;2022-08-21T15:37:54;18.63;;;10.00;;
43509;SDS011;29105;57.764;40.952;2022-08-21T15:40:20;15.60;;;10.00;;
43509;SDS011;29105;57.764;40.952;2022-08-21T15:42:45;20.00;;;9.38;;
43509;SDS011;29105;57.764;40.952;2022-08-21T15:45:11;21.67;;;9.77;;
43509;SDS011;29105;57.764;40.952;2022-08-21T15:47:38;17.30;;;9.88;;
43509;SDS011;29105;57.764;40.952;2022-08-21T15:50:07;15.73;;;10.02;;
43509;SDS011;29105;57.764;40.952;2022-08-21T15:52:34;16.80;;;10.00;;
43509;SDS011;29105;57.764;40.952;2022-08-21T15:55:00;16.90;;;9.82;;
43509;SDS011;29105;57.764;40.952;2022-08-21T15:57:26;21.58;;;10.65;;
43509;SDS011;29105;57.764;40.952;2022-08-21T16:00:05;17.38;;;9.93;;